sensor_id;sensor_type;location;lat;lon;timestamp;P1;durP1;ratioP1;P2;durP2;ratioP2
13985;SDS011;7067;51.832;8.296;2023-04-06T00:00:02;14.70;;;10.43;;
13985;SDS011;7067;51.832;8.296;2023-04-06T00:02:29;32.23;;;9.50;;
13985;SDS011;7067;51.832;8.296;2023-04-06T00:04:55;20.60;;;10.43;;
13985;SDS011;7067;51.832;8.296;2023-04-06T00:07:20;16.27;;;10.00;;
13985;SDS011;7067;51.832;8.296;2023-04-06T00:09:46;26.77;;;11.33;;
13985;SDS011;7067;51.832;8.296;2023-04-06T00:12:11;9.93;;;8.53;;
13985;SDS011;7067;51.832;8.296;2023-04-06T00:14:36;17.50;;;9.07;;
13985;SDS011;7067;51.832;8.296;2023-04-06T00:17:02;10.83;;;9.10;;
13985;SDS011;7067;51.832;8.296;2023-04-06T00:19:27;10.73;;;9.83;;
13985;SDS011;7067;51.832;8.296;2023-04-06T00:21:53;9.37;;;8.43;;
13985;SDS011;7067;51.832;8.296;2023-04-06T00:24:18;11.67;;;10.50;;
13985;SDS011;7067;51.832;8.296;2023-04-06T00:26:43;12.53;;;10.17;;
13985;SDS011;7067;51.832;8.296;2023-04-06T00:29:09;11.63;;;8.87;;
13985;SDS011;7067;51.832;8.296;2023-04-06T00:31:34;10.20;;;9.13;;
13985;SDS011;7067;51.832;8.296;2023-04-06T00:34:00;13.70;;;10.47;;
13985;SDS011;7067;51.832;8.296;2023-04-06T00:36:25;11.47;;;8.87;;
13985;SDS011;7067;51.832;8.296;2023-04-06T00:38:51;9.97;;;8.60;;
13985;SDS011;7067;51.832;8.296;2023-04-06T00:41:17;23.60;;;11.00;;
13985;SDS011;7067;51.832;8.296;2023-04-06T00:43:42;11.53;;;10.33;;
13985;SDS011;7067;51.832;8.296;2023-04-06T00:46:08;10.67;;;9.23;;
13985;SDS011;7067;51.832;8.296;2023-04-06T00:48:33;12.13;;;10.20;;
13985;SDS011;7067;51.832;8.296;2023-04-06T00:50:59;34.60;;;11.23;;
13985;SDS011;7067;51.832;8.296;2023-04-06T00:53:25;11.10;;;9.30;;
13985;SDS011;7067;51.832;8.296;2023-04-06T00:55:50;36.60;;;9.90;;
13985;SDS011;7067;51.832;8.296;2023-04-06T00:58:16;11.87;;;10.60;;
13985;SDS011;7067;51.832;8.296;2023-04-06T01:00:41;15.50;;;11.83;;
13985;SDS011;7067;51.832;8.296;2023-04-06T01:03:07;12.10;;;10.90;;
13985;SDS011;7067;51.832;8.296;2023-04-06T01:05:33;12.10;;;10.07;;
13985;SDS011;7067;51.832;8.296;2023-04-06T01:08:00;12.23;;;11.00;;
13985;SDS011;7067;51.832;8.296;2023-04-06T01:10:26;10.90;;;9.90;;
13985;SDS011;7067;51.832;8.296;2023-04-06T01:12:52;27.67;;;10.87;;
13985;SDS011;7067;51.832;8.296;2023-04-06T01:15:17;11.70;;;9.63;;
13985;SDS011;7067;51.832;8.296;2023-04-06T01:17:43;12.43;;;11.17;;
13985;SDS011;7067;51.832;8.296;2023-04-06T01:20:08;10.87;;;9.87;;
13985;SDS011;7067;51.832;8.296;2023-04-06T01:22:34;12.50;;;11.23;;
13985;SDS011;7067;51.832;8.296;2023-04-06T01:24:59;12.17;;;9.97;;
13985;SDS011;7067;51.832;8.296;2023-04-06T01:27:24;12.13;;;10.43;;
13985;SDS011;7067;51.832;8.296;2023-04-06T01:29:51;11.57;;;10.10;;
13985;SDS011;7067;51.832;8.296;2023-04-06T01:32:16;10.87;;;9.87;;
13985;SDS011;7067;51.832;8.296;2023-04-06T01:34:42;10.70;;;9.63;;
13985;SDS011;7067;51.832;8.296;2023-04-06T01:37:07;12.13;;;10.83;;
13985;SDS011;7067;51.832;8.296;2023-04-06T01:39:32;10.93;;;9.83;;
13985;SDS011;7067;51.832;8.296;2023-04-06T01:41:58;14.50;;;10.10;;
13985;SDS011;7067;51.832;8.296;2023-04-06T01:44:23;11.43;;;10.30;;
13985;SDS011;7067;51.832;8.296;2023-04-06T01:46:49;11.13;;;10.00;;
13985;SDS011;7067;51.832;8.296;2023-04-06T01:49:14;10.63;;;9.50;;
13985;SDS011;7067;51.832;8.296;2023-04-06T01:51:39;11.03;;;9.57;;
13985;SDS011;7067;51.832;8.296;2023-04-06T01:54:05;11.33;;;10.10;;
13985;SDS011;7067;51.832;8.296;2023-04-06T01:56:30;11.67;;;9.30;;
13985;SDS011;7067;51.832;8.296;2023-04-06T01:58:56;9.87;;;9.07;;
13985;SDS011;7067;51.832;8.296;2023-04-06T02:01:21;10.90;;;9.37;;
13985;SDS011;7067;51.832;8.296;2023-04-06T02:03:47;14.70;;;10.87;;
13985;SDS011;7067;51.832;8.296;2023-04-06T02:06:12;9.33;;;8.53;;
13985;SDS011;7067;51.832;8.296;2023-04-06T02:08:37;9.67;;;8.67;;
13985;SDS011;7067;51.832;8.296;2023-04-06T02:11:03;10.37;;;9.37;;
13985;SDS011;7067;51.832;8.296;2023-04-06T02:13:28;10.70;;;9.70;;
13985;SDS011;7067;51.832;8.296;2023-04-06T02:15:53;11.70;;;9.37;;
13985;SDS011;7067;51.832;8.296;2023-04-06T02:18:20;10.60;;;9.60;;
13985;SDS011;7067;51.832;8.296;2023-04-06T02:20:45;27.57;;;11.03;;
13985;SDS011;7067;51.832;8.296;2023-04-06T02:23:11;11.77;;;10.67;;
13985;SDS011;7067;51.832;8.296;2023-04-06T02:25:36;30.13;;;11.87;;
13985;SDS011;7067;51.832;8.296;2023-04-06T02:28:02;29.77;;;10.33;;
13985;SDS011;7067;51.832;8.296;2023-04-06T02:30:27;13.67;;;11.03;;
13985;SDS011;7067;51.832;8.296;2023-04-06T02:32:54;13.43;;;9.33;;
13985;SDS011;7067;51.832;8.296;2023-04-06T02:35:19;10.27;;;9.37;;
13985;SDS011;7067;51.832;8.296;2023-04-06T02:37:45;14.67;;;12.03;;
13985;SDS011;7067;51.832;8.296;2023-04-06T02:40:10;10.93;;;9.40;;
13985;SDS011;7067;51.832;8.296;2023-04-06T02:42:36;10.40;;;9.40;;
13985;SDS011;7067;51.832;8.296;2023-04-06T02:45:01;14.63;;;9.67;;
13985;SDS011;7067;51.832;8.296;2023-04-06T02:47:26;20.73;;;9.80;;
13985;SDS011;7067;51.832;8.296;2023-04-06T02:49:52;9.97;;;8.97;;
13985;SDS011;7067;51.832;8.296;2023-04-06T02:52:17;10.53;;;9.63;;
13985;SDS011;7067;51.832;8.296;2023-04-06T02:54:43;10.63;;;9.63;;
13985;SDS011;7067;51.832;8.296;2023-04-06T02:57:08;11.17;;;10.10;;
13985;SDS011;7067;51.832;8.296;2023-04-06T02:59:34;10.50;;;9.60;;
13985;SDS011;7067;51.832;8.296;2023-04-06T03:01:59;12.77;;;10.93;;
13985;SDS011;7067;51.832;8.296;2023-04-06T03:04:25;11.47;;;10.23;;
13985;SDS011;7067;51.832;8.296;2023-04-06T03:06:50;17.67;;;10.83;;
13985;SDS011;7067;51.832;8.296;2023-04-06T03:09:16;10.30;;;9.50;;
13985;SDS011;7067;51.832;8.296;2023-04-06T03:11:41;12.67;;;11.03;;
13985;SDS011;7067;51.832;8.296;2023-04-06T03:14:07;11.17;;;10.00;;
13985;SDS011;7067;51.832;8.296;2023-04-06T03:16:32;11.83;;;10.73;;
13985;SDS011;7067;51.832;8.296;2023-04-06T03:18:57;11.57;;;8.93;;
13985;SDS011;7067;51.832;8.296;2023-04-06T03:21:23;21.47;;;11.00;;
13985;SDS011;7067;51.832;8.296;2023-04-06T03:23:48;13.13;;;9.93;;
13985;SDS011;7067;51.832;8.296;2023-04-06T03:26:17;15.60;;;10.70;;
13985;SDS011;7067;51.832;8.296;2023-04-06T03:28:42;10.73;;;9.83;;
13985;SDS011;7067;51.832;8.296;2023-04-06T03:31:08;12.93;;;9.93;;
13985;SDS011;7067;51.832;8.296;2023-04-06T03:33:33;20.13;;;11.50;;
13985;SDS011;7067;51.832;8.296;2023-04-06T03:35:58;16.33;;;10.53;;
13985;SDS011;7067;51.832;8.296;2023-04-06T03:38:24;11.30;;;10.23;;
13985;SDS011;7067;51.832;8.296;2023-04-06T03:40:49;17.53;;;10.73;;
13985;SDS011;7067;51.832;8.296;2023-04-06T03:43:15;11.50;;;9.93;;
13985;SDS011;7067;51.832;8.296;2023-04-06T03:45:40;12.60;;;10.37;;
13985;SDS011;7067;51.832;8.296;2023-04-06T03:48:06;15.13;;;11.57;;
13985;SDS011;7067;51.832;8.296;2023-04-06T03:50:31;12.87;;;10.53;;
13985;SDS011;7067;51.832;8.296;2023-04-06T03:52:56;13.17;;;10.30;;
13985;SDS011;7067;51.832;8.296;2023-04-06T03:55:22;12.10;;;10.67;;
13985;SDS011;7067;51.832;8.296;2023-04-06T03:57:47;12.77;;;10.90;;
13985;SDS011;7067;51.832;8.296;2023-04-06T04:00:13;11.17;;;10.17;;
13985;SDS011;7067;51.832;8.296;2023-04-06T04:02:38;12.50;;;9.73;;
13985;SDS011;7067;51.832;8.296;2023-04-06T04:05:04;11.07;;;9.93;;
13985;SDS011;7067;51.832;8.296;2023-04-06T04:07:30;12.40;;;11.10;;
13985;SDS011;7067;51.832;8.296;2023-04-06T04:09:55;13.30;;;10.23;;
13985;SDS011;7067;51.832;8.296;2023-04-06T04:12:21;10.70;;;9.53;;
13985;SDS011;7067;51.832;8.296;2023-04-06T04:14:46;15.50;;;10.50;;
13985;SDS011;7067;51.832;8.296;2023-04-06T04:17:11;11.10;;;10.00;;
13985;SDS011;7067;51.832;8.296;2023-04-06T04:19:37;11.17;;;9.90;;
13985;SDS011;7067;51.832;8.296;2023-04-06T04:22:02;11.93;;;10.37;;
13985;SDS011;7067;51.832;8.296;2023-04-06T04:24:29;12.57;;;10.57;;
13985;SDS011;7067;51.832;8.296;2023-04-06T04:26:55;11.27;;;10.27;;
13985;SDS011;7067;51.832;8.296;2023-04-06T04:29:21;11.17;;;10.07;;
13985;SDS011;7067;51.832;8.296;2023-04-06T04:31:47;12.63;;;11.40;;
13985;SDS011;7067;51.832;8.296;2023-04-06T04:34:13;11.80;;;10.70;;
13985;SDS011;7067;51.832;8.296;2023-04-06T04:36:39;11.63;;;10.63;;
13985;SDS011;7067;51.832;8.296;2023-04-06T04:39:06;12.40;;;11.30;;
13985;SDS011;7067;51.832;8.296;2023-04-06T04:41:32;12.03;;;10.70;;
13985;SDS011;7067;51.832;8.296;2023-04-06T04:43:57;12.57;;;10.63;;
13985;SDS011;7067;51.832;8.296;2023-04-06T04:46:23;13.27;;;11.70;;
13985;SDS011;7067;51.832;8.296;2023-04-06T04:48:48;11.30;;;10.10;;
13985;SDS011;7067;51.832;8.296;2023-04-06T04:51:14;11.73;;;10.40;;
13985;SDS011;7067;51.832;8.296;2023-04-06T04:53:40;12.40;;;11.33;;
13985;SDS011;7067;51.832;8.296;2023-04-06T04:56:05;13.47;;;10.83;;
13985;SDS011;7067;51.832;8.296;2023-04-06T04:58:31;15.17;;;10.17;;
13985;SDS011;7067;51.832;8.296;2023-04-06T05:00:56;12.70;;;11.43;;
13985;SDS011;7067;51.832;8.296;2023-04-06T05:03:22;12.93;;;11.40;;
13985;SDS011;7067;51.832;8.296;2023-04-06T05:05:48;12.10;;;10.67;;
13985;SDS011;7067;51.832;8.296;2023-04-06T05:08:15;11.90;;;10.67;;
13985;SDS011;7067;51.832;8.296;2023-04-06T05:10:40;11.90;;;10.73;;
13985;SDS011;7067;51.832;8.296;2023-04-06T05:13:06;12.20;;;11.20;;
13985;SDS011;7067;51.832;8.296;2023-04-06T05:15:31;11.23;;;10.00;;
13985;SDS011;7067;51.832;8.296;2023-04-06T05:17:59;12.17;;;10.73;;
13985;SDS011;7067;51.832;8.296;2023-04-06T05:20:25;15.70;;;11.57;;
13985;SDS011;7067;51.832;8.296;2023-04-06T05:22:50;17.00;;;10.37;;
13985;SDS011;7067;51.832;8.296;2023-04-06T05:25:16;11.17;;;10.13;;
13985;SDS011;7067;51.832;8.296;2023-04-06T05:27:41;13.23;;;10.43;;
13985;SDS011;7067;51.832;8.296;2023-04-06T05:30:07;16.00;;;11.43;;
13985;SDS011;7067;51.832;8.296;2023-04-06T05:32:32;16.43;;;11.43;;
13985;SDS011;7067;51.832;8.296;2023-04-06T05:34:58;12.67;;;11.37;;
13985;SDS011;7067;51.832;8.296;2023-04-06T05:37:23;17.07;;;11.70;;
13985;SDS011;7067;51.832;8.296;2023-04-06T05:39:49;12.03;;;10.70;;
13985;SDS011;7067;51.832;8.296;2023-04-06T05:42:15;13.10;;;11.10;;
13985;SDS011;7067;51.832;8.296;2023-04-06T05:44:40;15.70;;;10.80;;
13985;SDS011;7067;51.832;8.296;2023-04-06T05:47:06;13.70;;;9.93;;
13985;SDS011;7067;51.832;8.296;2023-04-06T05:49:31;12.00;;;9.27;;
13985;SDS011;7067;51.832;8.296;2023-04-06T05:51:56;13.23;;;11.17;;
13985;SDS011;7067;51.832;8.296;2023-04-06T05:54:22;22.60;;;10.53;;
13985;SDS011;7067;51.832;8.296;2023-04-06T05:56:47;12.27;;;10.90;;
13985;SDS011;7067;51.832;8.296;2023-04-06T05:59:13;15.87;;;10.17;;
13985;SDS011;7067;51.832;8.296;2023-04-06T06:01:38;13.00;;;10.20;;
13985;SDS011;7067;51.832;8.296;2023-04-06T06:04:03;14.10;;;10.60;;
13985;SDS011;7067;51.832;8.296;2023-04-06T06:06:29;16.07;;;11.30;;
13985;SDS011;7067;51.832;8.296;2023-04-06T06:08:57;17.80;;;11.63;;
13985;SDS011;7067;51.832;8.296;2023-04-06T06:11:25;18.83;;;9.47;;
13985;SDS011;7067;51.832;8.296;2023-04-06T06:13:51;14.90;;;9.90;;
13985;SDS011;7067;51.832;8.296;2023-04-06T06:16:16;16.30;;;10.20;;
13985;SDS011;7067;51.832;8.296;2023-04-06T06:18:43;26.00;;;10.47;;
13985;SDS011;7067;51.832;8.296;2023-04-06T06:21:08;18.30;;;11.10;;
13985;SDS011;7067;51.832;8.296;2023-04-06T06:23:34;13.57;;;9.93;;
13985;SDS011;7067;51.832;8.296;2023-04-06T06:25:59;15.67;;;9.80;;
13985;SDS011;7067;51.832;8.296;2023-04-06T06:28:26;29.53;;;10.10;;
13985;SDS011;7067;51.832;8.296;2023-04-06T06:30:51;18.90;;;10.73;;
13985;SDS011;7067;51.832;8.296;2023-04-06T06:33:17;34.97;;;11.23;;
13985;SDS011;7067;51.832;8.296;2023-04-06T06:35:42;14.47;;;10.03;;
13985;SDS011;7067;51.832;8.296;2023-04-06T06:38:08;21.50;;;9.67;;
13985;SDS011;7067;51.832;8.296;2023-04-06T06:40:33;32.97;;;11.20;;
13985;SDS011;7067;51.832;8.296;2023-04-06T06:42:59;13.50;;;8.67;;
13985;SDS011;7067;51.832;8.296;2023-04-06T06:45:24;23.23;;;9.57;;
13985;SDS011;7067;51.832;8.296;2023-04-06T06:47:50;24.70;;;10.53;;
13985;SDS011;7067;51.832;8.296;2023-04-06T06:50:16;13.87;;;9.37;;
13985;SDS011;7067;51.832;8.296;2023-04-06T06:52:41;40.03;;;11.37;;
13985;SDS011;7067;51.832;8.296;2023-04-06T06:55:07;16.67;;;10.00;;
13985;SDS011;7067;51.832;8.296;2023-04-06T06:57:33;18.87;;;9.40;;
13985;SDS011;7067;51.832;8.296;2023-04-06T06:59:59;20.33;;;8.93;;
13985;SDS011;7067;51.832;8.296;2023-04-06T07:02:25;10.03;;;8.60;;
13985;SDS011;7067;51.832;8.296;2023-04-06T07:04:50;11.83;;;8.90;;
13985;SDS011;7067;51.832;8.296;2023-04-06T07:07:15;14.40;;;9.20;;
13985;SDS011;7067;51.832;8.296;2023-04-06T07:09:41;21.37;;;10.43;;
13985;SDS011;7067;51.832;8.296;2023-04-06T07:12:06;17.03;;;9.20;;
13985;SDS011;7067;51.832;8.296;2023-04-06T07:14:32;19.67;;;8.73;;
13985;SDS011;7067;51.832;8.296;2023-04-06T07:16:57;15.30;;;9.10;;
13985;SDS011;7067;51.832;8.296;2023-04-06T07:19:22;23.57;;;9.73;;
13985;SDS011;7067;51.832;8.296;2023-04-06T07:21:48;24.33;;;9.67;;
13985;SDS011;7067;51.832;8.296;2023-04-06T07:24:14;21.73;;;9.70;;
13985;SDS011;7067;51.832;8.296;2023-04-06T07:26:40;41.90;;;10.43;;
13985;SDS011;7067;51.832;8.296;2023-04-06T07:29:05;10.13;;;9.03;;
13985;SDS011;7067;51.832;8.296;2023-04-06T07:31:31;21.30;;;9.70;;
13985;SDS011;7067;51.832;8.296;2023-04-06T07:33:56;14.10;;;8.07;;
13985;SDS011;7067;51.832;8.296;2023-04-06T07:36:22;21.93;;;9.00;;
13985;SDS011;7067;51.832;8.296;2023-04-06T07:38:50;12.47;;;8.53;;
13985;SDS011;7067;51.832;8.296;2023-04-06T07:41:15;38.80;;;9.60;;
13985;SDS011;7067;51.832;8.296;2023-04-06T07:43:41;14.93;;;9.03;;
13985;SDS011;7067;51.832;8.296;2023-04-06T07:46:10;19.87;;;8.80;;
13985;SDS011;7067;51.832;8.296;2023-04-06T07:48:35;49.13;;;11.23;;
13985;SDS011;7067;51.832;8.296;2023-04-06T07:51:02;30.00;;;11.53;;
13985;SDS011;7067;51.832;8.296;2023-04-06T07:53:28;24.10;;;9.30;;
13985;SDS011;7067;51.832;8.296;2023-04-06T07:55:54;33.83;;;10.13;;
13985;SDS011;7067;51.832;8.296;2023-04-06T07:58:20;20.97;;;8.90;;
13985;SDS011;7067;51.832;8.296;2023-04-06T08:00:46;32.37;;;9.10;;
13985;SDS011;7067;51.832;8.296;2023-04-06T08:03:11;75.27;;;14.13;;
13985;SDS011;7067;51.832;8.296;2023-04-06T08:05:40;8.60;;;7.73;;
13985;SDS011;7067;51.832;8.296;2023-04-06T08:08:05;48.67;;;11.57;;
13985;SDS011;7067;51.832;8.296;2023-04-06T08:10:31;28.27;;;8.77;;
13985;SDS011;7067;51.832;8.296;2023-04-06T08:12:59;27.80;;;8.50;;
13985;SDS011;7067;51.832;8.296;2023-04-06T08:15:24;50.27;;;13.97;;
13985;SDS011;7067;51.832;8.296;2023-04-06T08:17:50;33.07;;;9.03;;
13985;SDS011;7067;51.832;8.296;2023-04-06T08:20:21;48.67;;;11.87;;
13985;SDS011;7067;51.832;8.296;2023-04-06T08:22:46;42.00;;;13.03;;
13985;SDS011;7067;51.832;8.296;2023-04-06T08:25:12;58.37;;;15.33;;
13985;SDS011;7067;51.832;8.296;2023-04-06T08:27:37;57.97;;;10.73;;
13985;SDS011;7067;51.832;8.296;2023-04-06T08:30:03;57.70;;;11.37;;
13985;SDS011;7067;51.832;8.296;2023-04-06T08:32:28;41.07;;;9.37;;
13985;SDS011;7067;51.832;8.296;2023-04-06T08:34:54;74.73;;;11.87;;
13985;SDS011;7067;51.832;8.296;2023-04-06T08:37:20;59.63;;;17.37;;
13985;SDS011;7067;51.832;8.296;2023-04-06T08:39:46;74.10;;;15.10;;
13985;SDS011;7067;51.832;8.296;2023-04-06T08:42:19;63.40;;;13.23;;
13985;SDS011;7067;51.832;8.296;2023-04-06T08:44:45;44.57;;;10.37;;
13985;SDS011;7067;51.832;8.296;2023-04-06T08:47:18;91.53;;;18.80;;
13985;SDS011;7067;51.832;8.296;2023-04-06T08:49:44;66.07;;;17.37;;
13985;SDS011;7067;51.832;8.296;2023-04-06T08:52:19;69.27;;;20.93;;
13985;SDS011;7067;51.832;8.296;2023-04-06T08:54:47;67.67;;;15.60;;
13985;SDS011;7067;51.832;8.296;2023-04-06T08:57:13;93.03;;;21.13;;
13985;SDS011;7067;51.832;8.296;2023-04-06T08:59:38;54.87;;;14.83;;
13985;SDS011;7067;51.832;8.296;2023-04-06T09:02:04;70.47;;;21.40;;
13985;SDS011;7067;51.832;8.296;2023-04-06T09:04:35;48.53;;;15.93;;
13985;SDS011;7067;51.832;8.296;2023-04-06T09:07:00;92.53;;;15.57;;
13985;SDS011;7067;51.832;8.296;2023-04-06T09:09:26;82.43;;;20.00;;
13985;SDS011;7067;51.832;8.296;2023-04-06T09:11:52;54.90;;;16.47;;
13985;SDS011;7067;51.832;8.296;2023-04-06T09:14:29;91.50;;;26.25;;
13985;SDS011;7067;51.832;8.296;2023-04-06T09:17:06;98.07;;;16.00;;
13985;SDS011;7067;51.832;8.296;2023-04-06T09:19:32;87.93;;;19.33;;
13985;SDS011;7067;51.832;8.296;2023-04-06T09:22:06;73.07;;;21.58;;
13985;SDS011;7067;51.832;8.296;2023-04-06T09:24:41;70.93;;;18.35;;
13985;SDS011;7067;51.832;8.296;2023-04-06T09:27:07;72.07;;;21.42;;
13985;SDS011;7067;51.832;8.296;2023-04-06T09:29:32;102.13;;;23.45;;
13985;SDS011;7067;51.832;8.296;2023-04-06T09:32:08;18.15;;;10.43;;
13985;SDS011;7067;51.832;8.296;2023-04-06T09:34:37;88.20;;;23.27;;
13985;SDS011;7067;51.832;8.296;2023-04-06T09:37:15;57.75;;;19.13;;
13985;SDS011;7067;51.832;8.296;2023-04-06T09:39:43;68.50;;;16.70;;
13985;SDS011;7067;51.832;8.296;2023-04-06T09:42:22;75.90;;;23.42;;
13985;SDS011;7067;51.832;8.296;2023-04-06T09:44:49;91.32;;;24.27;;
13985;SDS011;7067;51.832;8.296;2023-04-06T09:47:15;60.22;;;23.05;;
13985;SDS011;7067;51.832;8.296;2023-04-06T09:49:41;85.63;;;21.88;;
13985;SDS011;7067;51.832;8.296;2023-04-06T09:52:07;94.65;;;23.85;;
13985;SDS011;7067;51.832;8.296;2023-04-06T09:54:34;91.30;;;25.27;;
13985;SDS011;7067;51.832;8.296;2023-04-06T09:59:53;110.13;;;26.63;;
13985;SDS011;7067;51.832;8.296;2023-04-06T10:02:35;127.00;;;24.95;;
13985;SDS011;7067;51.832;8.296;2023-04-06T10:07:45;126.47;;;25.23;;
13985;SDS011;7067;51.832;8.296;2023-04-06T10:10:11;125.32;;;26.08;;
13985;SDS011;7067;51.832;8.296;2023-04-06T10:12:38;118.97;;;28.38;;
13985;SDS011;7067;51.832;8.296;2023-04-06T10:15:04;108.00;;;24.45;;
13985;SDS011;7067;51.832;8.296;2023-04-06T10:17:30;126.82;;;28.00;;
13985;SDS011;7067;51.832;8.296;2023-04-06T10:20:00;246.55;;;44.70;;
13985;SDS011;7067;51.832;8.296;2023-04-06T10:25:31;109.72;;;29.08;;
13985;SDS011;7067;51.832;8.296;2023-04-06T10:28:09;87.75;;;23.90;;
13985;SDS011;7067;51.832;8.296;2023-04-06T10:30:41;130.45;;;26.77;;
13985;SDS011;7067;51.832;8.296;2023-04-06T10:33:19;154.27;;;32.22;;
13985;SDS011;7067;51.832;8.296;2023-04-06T10:35:45;98.95;;;25.02;;
13985;SDS011;7067;51.832;8.296;2023-04-06T10:38:11;121.85;;;27.73;;
13985;SDS011;7067;51.832;8.296;2023-04-06T10:40:40;131.57;;;32.80;;
13985;SDS011;7067;51.832;8.296;2023-04-06T10:43:08;199.65;;;37.88;;
13985;SDS011;7067;51.832;8.296;2023-04-06T10:45:34;144.45;;;30.05;;
13985;SDS011;7067;51.832;8.296;2023-04-06T10:48:00;148.93;;;32.55;;
13985;SDS011;7067;51.832;8.296;2023-04-06T10:50:26;124.93;;;35.38;;
13985;SDS011;7067;51.832;8.296;2023-04-06T10:53:00;189.07;;;40.65;;
13985;SDS011;7067;51.832;8.296;2023-04-06T10:55:27;250.18;;;41.33;;
13985;SDS011;7067;51.832;8.296;2023-04-06T10:57:53;186.13;;;38.97;;
13985;SDS011;7067;51.832;8.296;2023-04-06T11:00:18;148.55;;;36.05;;
13985;SDS011;7067;51.832;8.296;2023-04-06T11:02:44;161.38;;;40.17;;
13985;SDS011;7067;51.832;8.296;2023-04-06T11:05:11;186.50;;;37.00;;
13985;SDS011;7067;51.832;8.296;2023-04-06T11:07:39;190.25;;;35.70;;
13985;SDS011;7067;51.832;8.296;2023-04-06T11:10:05;186.15;;;36.15;;
13985;SDS011;7067;51.832;8.296;2023-04-06T11:12:32;186.60;;;40.25;;
13985;SDS011;7067;51.832;8.296;2023-04-06T11:15:01;347.65;;;54.10;;
13985;SDS011;7067;51.832;8.296;2023-04-06T11:17:31;194.80;;;50.72;;
13985;SDS011;7067;51.832;8.296;2023-04-06T11:19:58;401.25;;;80.65;;
13985;SDS011;7067;51.832;8.296;2023-04-06T11:22:24;318.55;;;51.28;;
13985;SDS011;7067;51.832;8.296;2023-04-06T11:24:50;274.55;;;46.30;;
13985;SDS011;7067;51.832;8.296;2023-04-06T11:27:15;205.70;;;49.70;;
13985;SDS011;7067;51.832;8.296;2023-04-06T11:29:47;223.82;;;47.10;;
13985;SDS011;7067;51.832;8.296;2023-04-06T11:32:21;288.13;;;71.65;;
13985;SDS011;7067;51.832;8.296;2023-04-06T11:34:47;216.07;;;43.88;;
13985;SDS011;7067;51.832;8.296;2023-04-06T11:37:13;261.80;;;52.35;;
13985;SDS011;7067;51.832;8.296;2023-04-06T11:39:42;334.23;;;60.28;;
13985;SDS011;7067;51.832;8.296;2023-04-06T11:42:20;273.63;;;58.08;;
13985;SDS011;7067;51.832;8.296;2023-04-06T11:44:46;611.80;;;120.72;;
13985;SDS011;7067;51.832;8.296;2023-04-06T11:47:16;629.20;;;177.90;;
13985;SDS011;7067;51.832;8.296;2023-04-06T11:49:42;293.30;;;72.03;;
13985;SDS011;7067;51.832;8.296;2023-04-06T11:54:49;1999.90;;;890.88;;
13985;SDS011;7067;51.832;8.296;2023-04-06T11:57:16;1434.43;;;512.95;;
13985;SDS011;7067;51.832;8.296;2023-04-06T11:59:42;1067.50;;;319.50;;
13985;SDS011;7067;51.832;8.296;2023-04-06T12:02:08;510.50;;;161.02;;
13985;SDS011;7067;51.832;8.296;2023-04-06T12:04:34;1999.90;;;999.90;;
13985;SDS011;7067;51.832;8.296;2023-04-06T12:07:00;1472.35;;;515.05;;
13985;SDS011;7067;51.832;8.296;2023-04-06T12:09:26;1999.90;;;606.00;;
13985;SDS011;7067;51.832;8.296;2023-04-06T12:11:51;1999.90;;;823.67;;
13985;SDS011;7067;51.832;8.296;2023-04-06T12:14:17;1999.90;;;752.92;;
13985;SDS011;7067;51.832;8.296;2023-04-06T12:16:42;1999.90;;;999.90;;
13985;SDS011;7067;51.832;8.296;2023-04-06T12:19:08;1999.90;;;947.47;;
13985;SDS011;7067;51.832;8.296;2023-04-06T12:21:34;1999.90;;;970.92;;
13985;SDS011;7067;51.832;8.296;2023-04-06T12:24:04;1999.90;;;952.30;;
13985;SDS011;7067;51.832;8.296;2023-04-06T12:26:30;1999.90;;;999.90;;
13985;SDS011;7067;51.832;8.296;2023-04-06T12:28:56;1999.90;;;656.38;;
13985;SDS011;7067;51.832;8.296;2023-04-06T12:31:22;1999.90;;;591.45;;
13985;SDS011;7067;51.832;8.296;2023-04-06T12:33:48;1999.90;;;999.90;;
13985;SDS011;7067;51.832;8.296;2023-04-06T12:36:21;1999.90;;;844.65;;
13985;SDS011;7067;51.832;8.296;2023-04-06T12:38:47;1999.90;;;895.67;;
13985;SDS011;7067;51.832;8.296;2023-04-06T12:41:13;1921.20;;;676.03;;
13985;SDS011;7067;51.832;8.296;2023-04-06T12:43:41;1999.90;;;264.30;;
13985;SDS011;7067;51.832;8.296;2023-04-06T12:46:10;1999.90;;;855.88;;
13985;SDS011;7067;51.832;8.296;2023-04-06T12:48:36;1999.90;;;969.25;;
13985;SDS011;7067;51.832;8.296;2023-04-06T12:51:03;1999.90;;;999.90;;
13985;SDS011;7067;51.832;8.296;2023-04-06T12:53:34;1999.90;;;999.90;;
13985;SDS011;7067;51.832;8.296;2023-04-06T12:56:00;1999.90;;;452.73;;
13985;SDS011;7067;51.832;8.296;2023-04-06T12:58:26;1999.90;;;850.85;;
13985;SDS011;7067;51.832;8.296;2023-04-06T13:00:52;1079.57;;;407.00;;
13985;SDS011;7067;51.832;8.296;2023-04-06T13:03:18;1999.90;;;999.90;;
13985;SDS011;7067;51.832;8.296;2023-04-06T13:05:48;1999.90;;;978.38;;
13985;SDS011;7067;51.832;8.296;2023-04-06T13:08:18;1999.90;;;707.50;;
13985;SDS011;7067;51.832;8.296;2023-04-06T13:10:47;1999.90;;;670.55;;
13985;SDS011;7067;51.832;8.296;2023-04-06T13:13:14;1999.90;;;999.90;;
13985;SDS011;7067;51.832;8.296;2023-04-06T13:15:40;1999.90;;;999.90;;
13985;SDS011;7067;51.832;8.296;2023-04-06T13:20:37;1999.90;;;553.03;;
13985;SDS011;7067;51.832;8.296;2023-04-06T13:23:03;1990.68;;;171.73;;
13985;SDS011;7067;51.832;8.296;2023-04-06T13:25:29;1999.90;;;999.90;;
13985;SDS011;7067;51.832;8.296;2023-04-06T13:27:54;1999.90;;;999.90;;
13985;SDS011;7067;51.832;8.296;2023-04-06T13:30:21;1999.90;;;595.15;;
13985;SDS011;7067;51.832;8.296;2023-04-06T13:32:49;1999.90;;;999.90;;
13985;SDS011;7067;51.832;8.296;2023-04-06T13:35:17;1999.90;;;999.90;;
13985;SDS011;7067;51.832;8.296;2023-04-06T13:37:43;1999.90;;;999.90;;
13985;SDS011;7067;51.832;8.296;2023-04-06T13:40:09;1999.90;;;999.90;;
13985;SDS011;7067;51.832;8.296;2023-04-06T13:42:35;1999.90;;;453.50;;
13985;SDS011;7067;51.832;8.296;2023-04-06T13:45:05;1999.90;;;999.90;;
13985;SDS011;7067;51.832;8.296;2023-04-06T13:47:34;1999.90;;;999.90;;
13985;SDS011;7067;51.832;8.296;2023-04-06T13:50:00;1999.90;;;999.90;;
13985;SDS011;7067;51.832;8.296;2023-04-06T13:52:25;1999.90;;;999.90;;
13985;SDS011;7067;51.832;8.296;2023-04-06T13:54:57;1999.90;;;999.90;;
13985;SDS011;7067;51.832;8.296;2023-04-06T13:57:31;1999.90;;;551.47;;
13985;SDS011;7067;51.832;8.296;2023-04-06T14:00:02;1999.90;;;686.17;;
13985;SDS011;7067;51.832;8.296;2023-04-06T14:02:28;1999.90;;;999.90;;
13985;SDS011;7067;51.832;8.296;2023-04-06T14:04:56;1946.05;;;786.60;;
13985;SDS011;7067;51.832;8.296;2023-04-06T14:07:24;1999.90;;;281.60;;
13985;SDS011;7067;51.832;8.296;2023-04-06T14:09:49;1888.47;;;782.35;;
13985;SDS011;7067;51.832;8.296;2023-04-06T14:12:15;1999.90;;;207.45;;
13985;SDS011;7067;51.832;8.296;2023-04-06T14:14:46;1999.90;;;704.05;;
13985;SDS011;7067;51.832;8.296;2023-04-06T14:17:11;1999.90;;;490.52;;
13985;SDS011;7067;51.832;8.296;2023-04-06T14:19:37;1999.90;;;249.32;;
13985;SDS011;7067;51.832;8.296;2023-04-06T14:22:02;1999.90;;;420.38;;
13985;SDS011;7067;51.832;8.296;2023-04-06T14:24:29;1999.90;;;999.90;;
13985;SDS011;7067;51.832;8.296;2023-04-06T14:26:54;1999.90;;;482.65;;
13985;SDS011;7067;51.832;8.296;2023-04-06T14:29:23;1999.90;;;881.10;;
13985;SDS011;7067;51.832;8.296;2023-04-06T14:31:55;1999.90;;;507.52;;
13985;SDS011;7067;51.832;8.296;2023-04-06T14:34:25;1999.90;;;999.90;;
13985;SDS011;7067;51.832;8.296;2023-04-06T14:36:51;1999.90;;;602.67;;